Time;durP1;ratioP1;P1;durP2;ratioP2;P2;SDS_P1;SDS_P2;PMS_P1;PMS_P2;Temp;Humidity;BMP_temperature;BMP_pressure;BME280_temperature;BME280_humidity;BME280_pressure;Samples;Min_cycle;Max_cycle;Signal;HPM_P1;HPM_P2
2023/09/18 00:00:44;;;;;;;4.07;2.38;;;21.20;91.10;;;;;;4974093;28;20423;-79
2023/09/18 00:03:10;;;;;;;4.20;2.30;;;21.20;91.10;;;;;;4972465;28;20029;-79
2023/09/18 00:05:35;;;;;;;3.78;2.08;;;21.30;91.10;;;;;;4974615;28;20031;-80
2023/09/18 00:08:04;;;;;;;4.32;2.53;;;21.20;91.10;;;;;;4960179;28;20023;-79
2023/09/18 00:10:30;;;;;;;3.90;2.13;;;21.20;91.10;;;;;;4960248;28;20054;-80
2023/09/18 00:12:56;;;;;;;4.20;2.17;;;21.20;91.10;;;;;;4976232;28;20034;-80
2023/09/18 00:15:22;;;;;;;3.92;2.60;;;21.20;91.10;;;;;;4977636;28;20027;-80
2023/09/18 00:17:48;;;;;;;4.10;2.30;;;21.20;91.10;;;;;;4976544;28;20391;-80
2023/09/18 00:20:16;;;;;;;4.97;2.58;;;21.20;91.20;;;;;;4977671;28;20438;-80
2023/09/18 00:22:42;;;;;;;4.05;2.50;;;21.20;91.20;;;;;;4977257;28;20023;-80
2023/09/18 00:25:07;;;;;;;4.18;2.60;;;21.20;91.20;;;;;;4976368;28;20023;-80
2023/09/18 00:27:33;;;;;;;3.72;2.35;;;21.10;91.20;;;;;;4977462;28;20025;-80
2023/09/18 00:29:58;;;;;;;3.95;2.33;;;21.20;91.30;;;;;;4977290;28;20026;-79
2023/09/18 00:32:24;;;;;;;3.95;2.33;;;21.10;91.30;;;;;;4959980;28;20026;-80
2023/09/18 00:34:49;;;;;;;4.95;2.47;;;21.20;91.30;;;;;;4977398;28;20077;-80
2023/09/18 00:37:16;;;;;;;4.22;2.40;;;21.20;91.30;;;;;;4975857;28;20560;-79
2023/09/18 00:39:43;;;;;;;5.47;2.20;;;21.20;91.30;;;;;;4976167;28;20031;-80
2023/09/18 00:42:13;;;;;;;5.07;2.70;;;21.20;91.30;;;;;;4975378;28;20546;-79
2023/09/18 00:44:39;;;;;;;3.88;2.47;;;21.20;91.30;;;;;;4975620;28;20074;-80
2023/09/18 00:47:06;;;;;;;3.95;2.35;;;21.10;91.30;;;;;;4975785;28;20489;-79
2023/09/18 00:49:33;;;;;;;4.00;2.40;;;21.20;91.30;;;;;;4975712;28;20168;-80
2023/09/18 00:51:58;;;;;;;4.03;2.40;;;21.20;91.20;;;;;;4975621;28;20559;-80
2023/09/18 00:54:24;;;;;;;4.15;2.40;;;21.20;91.20;;;;;;4976590;28;20106;-80
2023/09/18 00:56:53;;;;;;;4.55;2.55;;;21.20;91.20;;;;;;4976921;28;20026;-79
2023/09/18 00:59:20;;;;;;;4.25;2.25;;;21.20;91.10;;;;;;4976628;28;20101;-79
2023/09/18 01:01:48;;;;;;;4.18;2.50;;;21.20;91.10;;;;;;4975492;28;20372;-79
2023/09/18 01:04:14;;;;;;;4.25;2.50;;;21.20;91.10;;;;;;4976141;28;20037;-79
2023/09/18 01:06:40;;;;;;;3.80;2.42;;;21.20;91.10;;;;;;4975255;28;20085;-79
2023/09/18 01:09:12;;;;;;;8.32;2.70;;;21.20;91.20;;;;;;4975439;28;20023;-79
2023/09/18 01:11:59;;;;;;;4.40;2.40;;;21.20;91.20;;;;;;4959503;28;20030;-79
2023/09/18 01:14:41;;;;;;;4.93;2.20;;;21.10;91.20;;;;;;4975210;28;20475;-79
2023/09/18 01:17:10;;;;;;;4.00;2.30;;;21.20;91.20;;;;;;4974644;28;20035;-79
2023/09/18 01:19:45;;;;;;;4.25;2.45;;;21.20;91.20;;;;;;4975492;28;20113;-80
2023/09/18 01:22:12;;;;;;;3.90;2.10;;;21.20;91.30;;;;;;4975233;28;20018;-77
2023/09/18 01:24:39;;;;;;;3.90;2.50;;;21.20;91.30;;;;;;4975302;28;20027;-79
2023/09/18 01:27:07;;;;;;;4.75;2.60;;;21.20;91.30;;;;;;4975450;28;20432;-79
2023/09/18 01:29:33;;;;;;;4.13;2.13;;;21.20;91.30;;;;;;4975194;28;20026;-79
2023/09/18 01:31:58;;;;;;;3.75;2.30;;;21.20;91.30;;;;;;4975183;28;20547;-79
2023/09/18 01:34:33;;;;;;;4.50;2.70;;;21.10;91.30;;;;;;4976052;28;20030;-79
2023/09/18 01:37:00;;;;;;;5.05;2.78;;;21.10;91.30;;;;;;4974901;28;20026;-79
2023/09/18 01:39:31;;;;;;;5.07;2.55;;;21.10;91.30;;;;;;4975970;28;20026;-79
2023/09/18 01:41:58;;;;;;;3.80;2.40;;;21.20;91.30;;;;;;4975253;28;20022;-79
2023/09/18 01:44:24;;;;;;;3.58;2.42;;;21.20;91.30;;;;;;4974358;28;20027;-79
2023/09/18 01:46:51;;;;;;;4.22;2.50;;;21.20;91.50;;;;;;4974757;28;20029;-80
2023/09/18 01:49:25;;;;;;;4.97;2.80;;;21.20;91.20;;;;;;4974710;28;20402;-79
2023/09/18 01:51:51;;;;;;;5.07;2.80;;;21.20;91.20;;;;;;4974530;28;20168;-79
2023/09/18 01:54:17;;;;;;;4.47;2.55;;;21.20;91.20;;;;;;4974209;28;20027;-79
2023/09/18 01:56:42;;;;;;;3.80;2.20;;;21.20;91.20;;;;;;4958558;28;20048;-78
2023/09/18 01:59:08;;;;;;;4.65;2.60;;;21.20;91.20;;;;;;4975590;28;20074;-79
2023/09/18 02:01:34;;;;;;;3.78;2.25;;;21.20;91.20;;;;;;4958455;28;20571;-79
2023/09/18 02:04:00;;;;;;;4.20;2.40;;;21.20;91.20;;;;;;4974016;28;20023;-79
2023/09/18 02:06:25;;;;;;;4.68;2.45;;;21.10;91.20;;;;;;4958135;28;20035;-79
2023/09/18 02:08:51;;;;;;;4.57;2.45;;;21.20;91.20;;;;;;4974522;28;20058;-79
2023/09/18 02:11:16;;;;;;;4.90;2.50;;;21.10;91.20;;;;;;4975791;28;20539;-79
2023/09/18 02:13:42;;;;;;;4.45;2.60;;;21.10;91.30;;;;;;4973882;28;20019;-79
2023/09/18 02:16:08;;;;;;;4.72;2.33;;;21.20;91.30;;;;;;4974443;28;20498;-79
2023/09/18 02:18:33;;;;;;;4.38;2.40;;;21.20;91.40;;;;;;4974118;28;20113;-79
2023/09/18 02:20:59;;;;;;;5.07;2.65;;;21.20;91.30;;;;;;4974189;28;20058;-79
2023/09/18 02:23:24;;;;;;;3.55;2.35;;;21.10;91.30;;;;;;4957793;28;20035;-79
2023/09/18 02:25:57;;;;;;;3.75;2.40;;;21.10;91.30;;;;;;4974046;28;20023;-79
2023/09/18 02:28:22;;;;;;;4.00;2.55;;;21.10;91.30;;;;;;4974090;28;20037;-79
2023/09/18 02:30:48;;;;;;;3.85;2.33;;;21.10;91.30;;;;;;4973750;28;20422;-79
2023/09/18 02:33:15;;;;;;;4.38;2.75;;;21.10;91.30;;;;;;4974843;28;20031;-79
2023/09/18 02:35:41;;;;;;;4.60;2.45;;;21.10;91.30;;;;;;4973846;28;20078;-79
2023/09/18 02:38:07;;;;;;;5.60;2.55;;;21.10;91.30;;;;;;4973883;28;20026;-79
2023/09/18 02:40:32;;;;;;;4.22;2.50;;;21.20;91.30;;;;;;4975056;28;20078;-79
2023/09/18 02:42:57;;;;;;;3.97;2.58;;;21.20;91.30;;;;;;4974605;28;20384;-79
2023/09/18 02:45:23;;;;;;;3.90;2.33;;;21.20;91.30;;;;;;4957675;28;20031;-79
2023/09/18 02:47:48;;;;;;;4.65;2.40;;;21.20;91.20;;;;;;4975258;28;20129;-79
2023/09/18 02:50:14;;;;;;;4.70;2.80;;;21.20;91.20;;;;;;4967642;28;20027;-79
2023/09/18 02:52:39;;;;;;;4.57;2.63;;;21.20;91.20;;;;;;4957334;28;20034;-79
2023/09/18 02:55:05;;;;;;;4.38;2.50;;;21.10;91.20;;;;;;4974761;28;20490;-79
2023/09/18 02:57:31;;;;;;;3.78;2.42;;;21.20;91.20;;;;;;4957757;28;20376;-79
2023/09/18 02:59:56;;;;;;;3.67;2.35;;;21.20;91.50;;;;;;4973570;28;20034;-79
2023/09/18 03:02:21;;;;;;;5.43;2.40;;;21.20;91.30;;;;;;4957126;28;20053;-79
2023/09/18 03:04:48;;;;;;;3.92;2.53;;;21.20;91.20;;;;;;4957338;28;20019;-79
2023/09/18 03:07:13;;;;;;;3.60;2.35;;;21.10;91.50;;;;;;4973549;28;20618;-79
2023/09/18 03:09:39;;;;;;;3.47;2.25;;;21.10;91.30;;;;;;4957578;28;20062;-79
2023/09/18 03:12:05;;;;;;;3.78;2.47;;;21.10;91.30;;;;;;4973405;28;20410;-78
2023/09/18 03:14:30;;;;;;;4.80;2.60;;;21.10;91.30;;;;;;4957163;28;20030;-79
2023/09/18 03:16:56;;;;;;;4.55;2.53;;;21.10;91.30;;;;;;4975223;28;20386;-79
2023/09/18 03:19:24;;;;;;;4.07;2.35;;;21.10;91.30;;;;;;4957363;28;20034;-79
2023/09/18 03:21:50;;;;;;;4.60;2.70;;;21.10;91.40;;;;;;4973827;28;20027;-79
2023/09/18 03:24:15;;;;;;;4.32;2.42;;;21.10;91.40;;;;;;4973503;28;20035;-77
2023/09/18 03:26:41;;;;;;;4.18;2.50;;;21.10;91.40;;;;;;4970261;28;20042;-78
2023/09/18 03:29:06;;;;;;;4.15;2.60;;;21.10;91.40;;;;;;4953822;28;20066;-78
2023/09/18 03:31:32;;;;;;;4.60;2.63;;;21.10;91.30;;;;;;4984688;28;20038;-78
2023/09/18 03:33:57;;;;;;;4.15;2.25;;;21.10;91.30;;;;;;5004580;28;20031;-79
2023/09/18 03:36:23;;;;;;;4.15;2.50;;;21.10;91.30;;;;;;4989716;28;20019;-78
2023/09/18 03:38:49;;;;;;;4.15;2.47;;;21.20;91.30;;;;;;4974212;28;20027;-77
2023/09/18 03:41:14;;;;;;;4.43;2.67;;;21.10;91.30;;;;;;4994529;28;20065;-78
2023/09/18 03:43:40;;;;;;;4.47;2.70;;;21.20;91.20;;;;;;4977315;28;20030;-79
2023/09/18 03:46:06;;;;;;;3.78;2.30;;;21.20;91.20;;;;;;4977632;28;20119;-79
2023/09/18 03:48:37;;;;;;;5.25;2.50;;;21.10;91.20;;;;;;4977581;28;20157;-79
2023/09/18 03:51:04;;;;;;;4.07;2.35;;;21.30;91.30;;;;;;4977633;28;20119;-79
2023/09/18 03:53:30;;;;;;;4.32;2.50;;;21.20;91.30;;;;;;4977045;28;20686;-78
2023/09/18 03:55:55;;;;;;;3.97;2.45;;;21.20;91.30;;;;;;4995155;28;20111;-79
2023/09/18 03:58:21;;;;;;;4.32;2.30;;;21.10;91.30;;;;;;4977237;28;20062;-80
2023/09/18 04:00:46;;;;;;;3.88;2.35;;;21.10;91.30;;;;;;4996787;28;20485;-79
2023/09/18 04:03:12;;;;;;;4.00;2.50;;;21.10;91.30;;;;;;4978382;28;20022;-84
2023/09/18 04:05:39;;;;;;;4.32;2.60;;;21.20;91.30;;;;;;4977735;28;20034;-84
2023/09/18 04:08:05;;;;;;;3.70;2.38;;;21.10;91.30;;;;;;4977579;28;20035;-85
2023/09/18 04:10:30;;;;;;;5.85;2.83;;;21.10;91.30;;;;;;4995563;28;20504;-83
2023/09/18 04:12:56;;;;;;;3.92;2.40;;;21.10;91.40;;;;;;4976874;28;20414;-85
2023/09/18 04:15:23;;;;;;;4.50;2.58;;;21.10;91.40;;;;;;4977534;28;20030;-85
2023/09/18 04:17:48;;;;;;;4.47;2.50;;;21.10;91.40;;;;;;4977385;28;20057;-85
2023/09/18 04:20:50;;;;;;;5.03;2.65;;;21.10;91.40;;;;;;4977809;28;20072;-87
2023/09/18 04:23:18;;;;;;;5.07;2.60;;;21.10;91.40;;;;;;4993218;28;20049;-80
2023/09/18 04:25:43;;;;;;;4.78;2.45;;;21.10;91.40;;;;;;4976849;28;20118;-79
2023/09/18 04:28:09;;;;;;;4.43;2.50;;;21.00;91.30;;;;;;4976464;28;20522;-79
2023/09/18 04:30:35;;;;;;;4.15;2.58;;;21.10;91.40;;;;;;4973595;28;20106;-79
2023/09/18 04:33:00;;;;;;;4.40;2.53;;;21.10;91.40;;;;;;4981616;28;20486;-79
2023/09/18 04:35:26;;;;;;;3.80;2.50;;;21.20;91.30;;;;;;4973605;28;20061;-79
2023/09/18 04:37:56;;;;;;;4.30;2.40;;;21.10;91.30;;;;;;4991484;28;20113;-77
2023/09/18 04:40:23;;;;;;;3.90;2.53;;;21.20;91.30;;;;;;4981133;28;20026;-77
2023/09/18 04:42:49;;;;;;;3.97;2.55;;;21.20;91.30;;;;;;4982064;28;20495;-80
2023/09/18 04:45:15;;;;;;;4.20;2.63;;;21.20;91.30;;;;;;4984126;28;20030;-79
2023/09/18 04:47:41;;;;;;;3.88;2.40;;;21.20;91.20;;;;;;4992465;28;20030;-78
2023/09/18 04:50:09;;;;;;;4.70;2.38;;;21.20;91.30;;;;;;4979259;28;20025;-78
2023/09/18 04:52:38;;;;;;;5.28;2.85;;;21.10;91.30;;;;;;4993523;28;20041;-79
2023/09/18 04:55:06;;;;;;;4.45;2.67;;;21.10;91.30;;;;;;4996545;28;20037;-78
2023/09/18 04:57:31;;;;;;;5.72;2.88;;;21.10;91.30;;;;;;5012451;28;20125;-79
2023/09/18 04:59:57;;;;;;;3.28;2.20;;;21.10;91.30;;;;;;5012426;28;20129;-78
2023/09/18 05:02:24;;;;;;;4.60;2.60;;;21.10;91.30;;;;;;4999457;28;20034;-78
2023/09/18 05:04:50;;;;;;;4.22;2.60;;;21.10;91.40;;;;;;4972309;28;20840;-78
2023/09/18 05:07:16;;;;;;;3.55;2.38;;;21.10;91.40;;;;;;4982917;28;20033;-78
2023/09/18 05:09:41;;;;;;;4.18;2.80;;;21.10;91.40;;;;;;4975926;28;20034;-77
2023/09/18 05:12:13;;;;;;;4.55;2.65;;;21.10;91.40;;;;;;4975070;28;20781;-80
2023/09/18 05:14:43;;;;;;;4.07;2.60;;;21.10;91.40;;;;;;4975400;28;20038;-80
2023/09/18 05:17:16;;;;;;;3.97;2.42;;;21.10;91.40;;;;;;4977590;28;20493;-80
2023/09/18 05:19:42;;;;;;;5.40;2.85;;;21.10;91.40;;;;;;4977287;28;20084;-80
2023/09/18 05:22:12;;;;;;;4.20;2.60;;;21.10;91.40;;;;;;4994121;28;20038;-78
2023/09/18 05:24:38;;;;;;;4.63;2.88;;;21.10;91.40;;;;;;4994401;28;20438;-77
2023/09/18 05:27:06;;;;;;;5.28;2.83;;;21.10;91.40;;;;;;4994456;28;20026;-79
2023/09/18 05:29:32;;;;;;;4.50;2.60;;;21.10;91.30;;;;;;4994983;28;20065;-79
2023/09/18 05:31:57;;;;;;;5.80;2.75;;;21.10;91.30;;;;;;4993552;28;20085;-79
2023/09/18 05:34:23;;;;;;;5.35;2.90;;;21.10;91.30;;;;;;4975800;28;20026;-77
2023/09/18 05:36:48;;;;;;;5.57;2.90;;;21.10;91.30;;;;;;4975091;28;20053;-81
2023/09/18 05:39:14;;;;;;;4.60;2.70;;;21.20;91.30;;;;;;4977134;28;20034;-88
2023/09/18 05:41:40;;;;;;;5.57;2.95;;;21.20;91.30;;;;;;4986457;28;20079;-88
2023/09/18 05:44:07;;;;;;;4.35;2.55;;;21.20;91.30;;;;;;4974197;28;20522;-88
2023/09/18 05:46:34;;;;;;;4.90;2.85;;;21.10;91.30;;;;;;4972901;28;20056;-89
2023/09/18 05:49:00;;;;;;;4.53;2.80;;;21.10;91.30;;;;;;4987596;28;20045;-89
2023/09/18 05:51:27;;;;;;;4.30;2.47;;;21.10;91.30;;;;;;4986517;28;20039;-89
2023/09/18 05:53:52;;;;;;;5.38;2.95;;;21.10;91.30;;;;;;4971389;28;20076;-88
2023/09/18 05:56:18;;;;;;;6.10;2.80;;;21.10;91.30;;;;;;4971371;28;20027;-89
2023/09/18 05:58:44;;;;;;;6.35;2.80;;;21.00;91.30;;;;;;4971193;28;20065;-88
2023/09/18 06:01:09;;;;;;;4.80;2.72;;;21.10;91.40;;;;;;4971052;28;20026;-89
2023/09/18 06:03:35;;;;;;;5.15;3.00;;;21.10;91.40;;;;;;4971476;28;20053;-87
2023/09/18 06:06:08;;;;;;;4.97;2.70;;;21.10;91.40;;;;;;4989845;28;20414;-89
2023/09/18 06:08:34;;;;;;;4.45;2.80;;;21.10;91.40;;;;;;4989480;28;20028;-90
2023/09/18 06:10:59;;;;;;;4.70;3.00;;;21.10;91.40;;;;;;4972326;28;20038;-89
2023/09/18 06:13:25;;;;;;;4.72;2.90;;;21.10;91.40;;;;;;4971650;28;20041;-89
2023/09/18 06:15:54;;;;;;;4.32;2.78;;;21.00;91.40;;;;;;4989192;28;20205;-89
2023/09/18 06:18:22;;;;;;;5.40;2.92;;;21.10;91.40;;;;;;4971561;28;20034;-88
2023/09/18 06:20:49;;;;;;;4.80;3.08;;;21.10;91.40;;;;;;4971731;28;20361;-89
2023/09/18 06:23:14;;;;;;;5.25;3.10;;;21.10;91.40;;;;;;4971212;28;20493;-89
2023/09/18 06:25:40;;;;;;;5.10;3.10;;;21.10;91.40;;;;;;4971584;28;20030;-90
2023/09/18 06:28:06;;;;;;;4.80;3.00;;;21.20;91.40;;;;;;4971471;28;20031;-88
2023/09/18 06:30:33;;;;;;;5.15;2.80;;;21.20;91.30;;;;;;4971834;28;20026;-89
2023/09/18 06:32:59;;;;;;;4.45;2.75;;;21.20;91.30;;;;;;4971641;28;20085;-89
2023/09/18 06:35:25;;;;;;;4.47;2.95;;;21.20;91.30;;;;;;4971342;28;20026;-87
2023/09/18 06:37:51;;;;;;;4.75;3.03;;;21.20;91.30;;;;;;4971692;28;20545;-89
2023/09/18 06:40:17;;;;;;;3.85;2.65;;;21.50;91.40;;;;;;4971156;28;20050;-88
2023/09/18 06:42:44;;;;;;;5.05;2.92;;;21.10;91.30;;;;;;4970949;28;20109;-89
2023/09/18 06:45:09;;;;;;;4.40;2.88;;;21.90;91.50;;;;;;4971168;28;20027;-88
2023/09/18 06:47:35;;;;;;;5.10;3.20;;;21.10;91.30;;;;;;4971383;28;20030;-88
2023/09/18 06:50:01;;;;;;;4.78;2.80;;;21.10;91.30;;;;;;4970905;28;20030;-87
2023/09/18 06:52:29;;;;;;;5.15;2.88;;;21.10;91.30;;;;;;4969745;28;20030;-88
2023/09/18 06:54:54;;;;;;;4.10;2.60;;;21.30;91.30;;;;;;4969984;28;20344;-87
2023/09/18 06:57:22;;;;;;;4.88;2.90;;;21.10;91.30;;;;;;4971063;28;20129;-89
2023/09/18 06:59:48;;;;;;;5.13;2.70;;;21.20;91.30;;;;;;4987503;28;20318;-89
2023/09/18 07:02:16;;;;;;;4.80;2.80;;;21.20;91.30;;;;;;4970539;28;20046;-90
2023/09/18 07:04:45;;;;;;;4.30;2.85;;;21.10;91.30;;;;;;4970023;28;20026;-89
2023/09/18 07:07:12;;;;;;;4.35;2.80;;;21.10;91.30;;;;;;4970835;28;20085;-89
2023/09/18 07:09:38;;;;;;;5.40;2.80;;;21.10;91.30;;;;;;4970784;28;20041;-88
2023/09/18 07:12:04;;;;;;;5.25;2.92;;;21.10;91.30;;;;;;4971184;28;20026;-89
2023/09/18 07:14:30;;;;;;;12.68;3.20;;;21.10;91.30;;;;;;4969791;28;20034;-87
2023/09/18 07:16:56;;;;;;;4.53;2.95;;;21.10;91.30;;;;;;4970792;28;20038;-89
2023/09/18 07:19:21;;;;;;;4.75;2.88;;;21.20;91.30;;;;;;4971108;28;20372;-88
2023/09/18 07:21:47;;;;;;;4.78;2.80;;;21.20;91.20;;;;;;4970846;28;20368;-90
2023/09/18 07:24:20;;;;;;;4.63;2.70;;;21.20;91.20;;;;;;4970785;28;20113;-89
2023/09/18 07:26:47;;;;;;;4.75;2.83;;;21.20;91.20;;;;;;4970917;28;20454;-88
2023/09/18 07:29:16;;;;;;;5.70;2.80;;;21.20;91.10;;;;;;4970586;28;20023;-89
2023/09/18 07:31:42;;;;;;;4.18;2.78;;;21.20;91.10;;;;;;4970927;28;20054;-89
2023/09/18 07:34:08;;;;;;;5.10;2.85;;;21.20;91.20;;;;;;4970724;28;20238;-87
2023/09/18 07:36:34;;;;;;;4.88;2.80;;;21.20;91.20;;;;;;4988037;28;20031;-89
2023/09/18 07:38:59;;;;;;;4.68;2.83;;;21.20;91.20;;;;;;4970630;28;20033;-89
2023/09/18 07:41:25;;;;;;;4.45;2.78;;;21.20;91.20;;;;;;4970576;28;20464;-89
2023/09/18 07:43:51;;;;;;;4.57;2.70;;;21.10;91.20;;;;;;4970747;28;20506;-89
2023/09/18 07:46:16;;;;;;;4.88;2.92;;;21.20;91.30;;;;;;4970533;28;20022;-89
2023/09/18 07:48:42;;;;;;;5.85;2.63;;;21.20;91.20;;;;;;4970766;28;20034;-88
2023/09/18 07:51:15;;;;;;;3.97;2.55;;;21.20;91.20;;;;;;4970437;28;20038;-90
2023/09/18 07:53:41;;;;;;;5.28;2.50;;;21.10;91.10;;;;;;4969913;28;20034;-89
2023/09/18 07:56:07;;;;;;;4.55;2.65;;;21.20;91.20;;;;;;4970449;28;20172;-87
2023/09/18 07:58:33;;;;;;;4.25;2.60;;;21.20;91.20;;;;;;4970573;28;20042;-89
2023/09/18 08:00:59;;;;;;;4.78;2.75;;;21.30;91.20;;;;;;4970616;28;20139;-87
2023/09/18 08:03:26;;;;;;;3.67;2.40;;;21.30;91.20;;;;;;4970104;28;20033;-89
2023/09/18 08:05:53;;;;;;;3.97;2.22;;;21.20;91.20;;;;;;4970210;28;20034;-87
2023/09/18 08:08:20;;;;;;;4.57;2.53;;;21.50;91.30;;;;;;4970513;28;20044;-89
2023/09/18 08:10:46;;;;;;;4.35;2.65;;;21.20;91.30;;;;;;4970210;28;20463;-89
2023/09/18 08:13:12;;;;;;;4.40;2.50;;;21.30;91.20;;;;;;4987463;28;20031;-89
2023/09/18 08:15:37;;;;;;;6.05;2.47;;;21.30;91.20;;;;;;4970389;28;20030;-89
2023/09/18 08:18:03;;;;;;;5.13;2.80;;;21.30;91.20;;;;;;4970549;28;20120;-88
2023/09/18 08:20:29;;;;;;;5.30;2.72;;;21.30;91.10;;;;;;4970019;28;20027;-89
2023/09/18 08:22:54;;;;;;;4.05;2.45;;;21.30;91.00;;;;;;4970001;28;20097;-89
2023/09/18 08:25:20;;;;;;;4.25;2.70;;;21.30;91.10;;;;;;4970660;28;20128;-89
2023/09/18 08:27:47;;;;;;;5.72;2.80;;;21.30;91.10;;;;;;4973807;28;20042;-89
2023/09/18 08:30:13;;;;;;;4.50;2.33;;;21.20;91.10;;;;;;4974114;28;20031;-89
2023/09/18 08:32:40;;;;;;;4.90;2.90;;;21.30;91.20;;;;;;4973384;28;20035;-88
2023/09/18 08:35:06;;;;;;;4.38;2.20;;;21.20;91.20;;;;;;4991563;28;20743;-89
2023/09/18 08:37:32;;;;;;;4.28;2.53;;;21.20;91.20;;;;;;4973638;28;20053;-89
2023/09/18 08:40:00;;;;;;;5.32;2.42;;;21.20;91.20;;;;;;4991462;28;20030;-89
2023/09/18 08:42:29;;;;;;;4.30;2.50;;;21.20;91.20;;;;;;4972890;28;20030;-88
2023/09/18 08:44:58;;;;;;;4.22;2.63;;;22.70;91.60;;;;;;4973552;28;20081;-88
2023/09/18 08:47:25;;;;;;;4.38;2.50;;;21.20;91.30;;;;;;4973493;28;20081;-88
2023/09/18 08:49:53;;;;;;;4.13;2.20;;;21.10;91.30;;;;;;4973304;28;20088;-89
2023/09/18 08:52:19;;;;;;;4.60;2.80;;;21.20;91.30;;;;;;4973240;28;20026;-87
2023/09/18 08:54:46;;;;;;;3.95;2.33;;;21.20;91.30;;;;;;4973192;28;20030;-89
2023/09/18 08:57:12;;;;;;;4.20;2.50;;;21.20;91.30;;;;;;4973243;28;20037;-88
2023/09/18 08:59:39;;;;;;;5.38;2.40;;;21.20;91.30;;;;;;4972872;28;20117;-89
2023/09/18 09:02:05;;;;;;;4.90;2.40;;;21.20;91.30;;;;;;4973268;28;20037;-88
2023/09/18 09:04:31;;;;;;;5.40;2.60;;;21.20;91.30;;;;;;4973426;28;20490;-89
2023/09/18 09:06:59;;;;;;;4.22;2.47;;;21.10;91.40;;;;;;4990006;28;20034;-88
2023/09/18 09:09:26;;;;;;;4.35;2.20;;;21.30;91.30;;;;;;4990576;28;20037;-88
2023/09/18 09:11:52;;;;;;;4.25;2.42;;;21.20;91.20;;;;;;4973152;28;20030;-89
2023/09/18 09:14:21;;;;;;;4.95;2.50;;;21.30;91.20;;;;;;4972682;28;20030;-87
2023/09/18 09:16:48;;;;;;;4.18;2.40;;;21.30;91.10;;;;;;4972865;28;20383;-88
2023/09/18 09:19:16;;;;;;;3.53;2.00;;;21.40;91.10;;;;;;4972903;28;20034;-88
2023/09/18 09:21:43;;;;;;;3.30;2.08;;;21.30;91.10;;;;;;4972498;28;20057;-90
2023/09/18 09:24:13;;;;;;;4.45;2.20;;;21.30;91.10;;;;;;4972689;28;20027;-88
2023/09/18 09:26:40;;;;;;;3.83;2.50;;;21.20;91.10;;;;;;4972676;28;20403;-89
2023/09/18 09:29:20;;;;;;;4.22;2.28;;;21.30;91.20;;;;;;4972182;28;20384;-88
2023/09/18 09:31:46;;;;;;;4.32;2.30;;;21.30;91.20;;;;;;4972757;28;20502;-89
2023/09/18 09:34:23;;;;;;;4.47;2.15;;;21.20;91.20;;;;;;4972288;28;20064;-87
2023/09/18 09:36:56;;;;;;;3.42;2.03;;;21.20;91.20;;;;;;4972084;28;20619;-89
2023/09/18 09:39:24;;;;;;;4.07;2.10;;;21.20;91.20;;;;;;4989849;28;20239;-89
2023/09/18 09:41:51;;;;;;;3.97;2.10;;;21.20;91.20;;;;;;4972296;28;20034;-89
2023/09/18 09:44:16;;;;;;;3.85;2.20;;;21.20;91.20;;;;;;4971751;28;20033;-87
2023/09/18 09:46:49;;;;;;;3.80;2.13;;;21.20;91.30;;;;;;4972416;28;20398;-89
2023/09/18 09:49:15;;;;;;;3.75;2.20;;;21.20;91.30;;;;;;4972839;28;20058;-89
2023/09/18 09:51:41;;;;;;;4.25;2.05;;;21.30;91.30;;;;;;4989681;28;20022;-88
2023/09/18 09:54:08;;;;;;;3.47;1.88;;;21.20;91.30;;;;;;4989169;28;20100;-89
2023/09/18 09:56:53;;;;;;;3.55;1.88;;;21.10;91.30;;;;;;4972020;28;20052;-89
2023/09/18 09:59:19;;;;;;;2.90;1.80;;;21.20;91.30;;;;;;4972243;28;20038;-88
2023/09/18 10:01:51;;;;;;;3.53;1.90;;;21.30;91.40;;;;;;4989506;28;20026;-90
2023/09/18 10:04:19;;;;;;;4.22;2.00;;;21.20;91.30;;;;;;4971755;28;20073;-88
2023/09/18 10:06:53;;;;;;;4.60;1.90;;;21.40;91.40;;;;;;4972108;28;20034;-89
2023/09/18 10:09:20;;;;;;;4.95;2.20;;;21.30;91.30;;;;;;4971854;28;20061;-89
2023/09/18 10:11:51;;;;;;;3.90;2.15;;;21.30;91.20;;;;;;4971489;28;20031;-88
2023/09/18 10:14:19;;;;;;;4.63;2.10;;;21.30;91.20;;;;;;4971613;28;20061;-89
2023/09/18 10:16:50;;;;;;;4.13;2.10;;;21.30;91.20;;;;;;4989051;28;20034;-89
2023/09/18 10:19:39;;;;;;;3.15;1.95;;;21.30;91.20;;;;;;4971510;28;20517;-88
2023/09/18 10:22:32;;;;;;;4.73;2.10;;;21.30;91.20;;;;;;4989000;28;20522;-88
2023/09/18 10:25:12;;;;;;;4.20;2.05;;;21.30;91.20;;;;;;4971452;28;20026;-88
2023/09/18 10:27:41;;;;;;;3.72;1.90;;;21.20;91.20;;;;;;4971638;28;20123;-89
2023/09/18 10:30:10;;;;;;;3.38;1.83;;;21.30;91.20;;;;;;4989007;28;20747;-88
2023/09/18 10:32:38;;;;;;;5.20;2.05;;;21.30;91.20;;;;;;4971124;28;20113;-89
2023/09/18 10:35:07;;;;;;;3.63;1.83;;;21.20;91.20;;;;;;4971755;28;20026;-88
2023/09/18 10:37:33;;;;;;;3.35;1.63;;;21.30;91.20;;;;;;4971421;28;20030;-89
2023/09/18 10:39:59;;;;;;;3.35;2.00;;;21.70;91.40;;;;;;4970839;28;20030;-88
2023/09/18 10:42:27;;;;;;;3.72;1.92;;;21.30;91.30;;;;;;4971353;28;20069;-89
2023/09/18 10:44:52;;;;;;;3.65;1.90;;;21.10;91.20;;;;;;4970863;28;20030;-88
2023/09/18 10:47:19;;;;;;;4.13;2.33;;;21.70;91.40;;;;;;4971414;28;20049;-88
2023/09/18 10:49:45;;;;;;;6.18;2.05;;;20.80;91.20;;;;;;4971152;28;20062;-88
2023/09/18 10:52:13;;;;;;;4.63;1.98;;;21.30;91.30;;;;;;4971296;28;20027;-86
2023/09/18 10:54:39;;;;;;;3.50;1.88;;;21.20;91.30;;;;;;4970931;28;20034;-88
2023/09/18 10:57:05;;;;;;;2.58;1.70;;;21.30;91.30;;;;;;4971034;28;20030;-89
2023/09/18 10:59:31;;;;;;;3.97;1.80;;;21.30;91.30;;;;;;4971176;28;20395;-88
2023/09/18 11:02:02;;;;;;;2.95;1.75;;;21.40;91.20;;;;;;4971078;28;20026;-88
2023/09/18 11:04:28;;;;;;;;;;;21.40;91.20;;;;;;4971206;28;20130;-89
2023/09/18 11:06:54;;;;;;;3.63;2.00;;;21.40;91.20;;;;;;4971190;28;19918;-89
2023/09/18 11:09:28;;;;;;;3.97;1.90;;;21.40;91.10;;;;;;4971198;28;20582;-87
2023/09/18 11:11:57;;;;;;;2.65;1.73;;;21.40;91.10;;;;;;4988520;28;20023;-89
2023/09/18 11:14:41;;;;;;;4.05;1.80;;;21.40;91.10;;;;;;4970638;28;20057;-88
2023/09/18 11:17:30;;;;;;;3.63;1.80;;;21.30;91.10;;;;;;4971131;28;20027;-89
2023/09/18 11:20:09;;;;;;;4.05;1.92;;;21.30;91.20;;;;;;4970505;28;20034;-89
2023/09/18 11:22:36;;;;;;;4.18;1.90;;;21.30;91.20;;;;;;4987762;28;20030;-89
2023/09/18 11:25:41;;;;;;;3.63;1.70;;;21.70;91.40;;;;;;4970515;28;20149;-89
2023/09/18 11:28:08;;;;;;;3.35;1.70;;;21.30;91.30;;;;;;4970760;28;20042;-89
2023/09/18 11:30:38;;;;;;;4.43;1.67;;;21.30;91.30;;;;;;4971013;28;20033;-89
2023/09/18 11:33:05;;;;;;;4.10;1.80;;;21.30;91.30;;;;;;4970432;28;20487;-88
2023/09/18 11:35:35;;;;;;;4.03;1.75;;;21.30;91.20;;;;;;4970692;28;20121;-89
2023/09/18 11:38:11;;;;;;;3.45;1.77;;;21.30;91.20;;;;;;4970820;28;20034;-89
2023/09/18 11:40:38;;;;;;;2.85;1.90;;;21.40;91.20;;;;;;4970186;28;20038;-88
2023/09/18 11:43:23;;;;;;;2.60;1.50;;;21.40;91.10;;;;;;4970371;28;20031;-89
2023/09/18 11:45:51;;;;;;;3.20;1.80;;;21.40;91.10;;;;;;4970968;28;20394;-89
2023/09/18 11:48:18;;;;;;;2.92;1.60;;;21.60;91.10;;;;;;4970410;28;20501;-88
2023/09/18 11:50:44;;;;;;;3.45;1.60;;;21.50;91.00;;;;;;4970822;28;20476;-87
2023/09/18 11:53:12;;;;;;;3.25;1.77;;;21.60;90.90;;;;;;4970293;28;20474;-88
2023/09/18 11:55:39;;;;;;;3.05;1.63;;;21.60;90.90;;;;;;4970537;28;20035;-87
2023/09/18 11:58:05;;;;;;;2.58;1.60;;;21.70;90.80;;;;;;4970636;28;20504;-90
2023/09/18 12:00:32;;;;;;;3.28;1.63;;;21.60;90.80;;;;;;4970887;28;20089;-86
2023/09/18 12:03:00;;;;;;;2.72;1.40;;;21.70;90.70;;;;;;4974028;28;20085;-88
2023/09/18 12:05:26;;;;;;;2.75;1.52;;;21.40;90.60;;;;;;4974368;28;20046;-88
2023/09/18 12:07:52;;;;;;;3.03;1.50;;;21.70;90.70;;;;;;4974615;28;20037;-88
2023/09/18 12:10:20;;;;;;;3.17;1.58;;;21.60;90.70;;;;;;4974510;28;20121;-88
2023/09/18 12:12:46;;;;;;;1.83;1.45;;;21.60;90.80;;;;;;4973695;28;20098;-87
2023/09/18 12:15:19;;;;;;;2.83;1.70;;;21.60;90.80;;;;;;4991757;28;20153;-88
2023/09/18 12:17:45;;;;;;;2.45;1.45;;;21.60;90.90;;;;;;4974508;28;20053;-88
2023/09/18 12:20:18;;;;;;;2.90;1.50;;;21.60;90.90;;;;;;4974095;28;20058;-88
2023/09/18 12:22:48;;;;;;;1.98;1.30;;;21.50;91.00;;;;;;4973900;28;20557;-87
2023/09/18 12:25:15;;;;;;;3.70;1.60;;;21.50;91.00;;;;;;4974268;28;20030;-88
2023/09/18 12:27:41;;;;;;;3.05;1.60;;;21.50;91.00;;;;;;4973663;28;20117;-86
2023/09/18 12:30:08;;;;;;;3.70;1.75;;;21.50;91.10;;;;;;4974184;28;20030;-87
2023/09/18 12:32:37;;;;;;;1.98;1.42;;;21.50;91.10;;;;;;4973017;28;20031;-86
2023/09/18 12:35:06;;;;;;;3.05;1.50;;;21.60;91.10;;;;;;4991153;28;20430;-86
2023/09/18 12:37:32;;;;;;;3.10;1.50;;;21.40;91.10;;;;;;4973603;28;20031;-88
2023/09/18 12:39:58;;;;;;;3.33;1.70;;;21.50;91.10;;;;;;4973482;28;20313;-88
2023/09/18 12:42:23;;;;;;;2.30;1.50;;;21.50;91.10;;;;;;4973116;28;20284;-88
2023/09/18 12:44:50;;;;;;;2.53;1.40;;;21.50;91.20;;;;;;4973081;28;20030;-88
2023/09/18 12:47:16;;;;;;;2.00;1.30;;;21.50;91.20;;;;;;4991018;28;20038;-88
2023/09/18 12:49:42;;;;;;;3.08;1.70;;;21.50;91.10;;;;;;4973415;28;20483;-89